sensor_id;sensor_type;location;lat;lon;timestamp;P1;durP1;ratioP1;P2;durP2;ratioP2
25279;SDS011;13225;47.804;12.116;2023-08-12T00:01:33;4.90;;;3.78;;
25279;SDS011;13225;47.804;12.116;2023-08-12T00:03:58;6.35;;;3.90;;
25279;SDS011;13225;47.804;12.116;2023-08-12T00:06:24;5.50;;;4.43;;
25279;SDS011;13225;47.804;12.116;2023-08-12T00:08:49;3.97;;;3.60;;
25279;SDS011;13225;47.804;12.116;2023-08-12T00:11:15;6.90;;;4.20;;
25279;SDS011;13225;47.804;12.116;2023-08-12T00:13:40;5.32;;;4.07;;
25279;SDS011;13225;47.804;12.116;2023-08-12T00:16:06;7.55;;;4.10;;
25279;SDS011;13225;47.804;12.116;2023-08-12T00:18:32;4.07;;;3.67;;
25279;SDS011;13225;47.804;12.116;2023-08-12T00:21:05;4.80;;;4.05;;
25279;SDS011;13225;47.804;12.116;2023-08-12T00:23:32;5.57;;;3.75;;
25279;SDS011;13225;47.804;12.116;2023-08-12T00:26:02;7.32;;;3.63;;
25279;SDS011;13225;47.804;12.116;2023-08-12T00:28:27;4.25;;;3.58;;
25279;SDS011;13225;47.804;12.116;2023-08-12T00:30:53;4.90;;;3.55;;
25279;SDS011;13225;47.804;12.116;2023-08-12T00:33:18;5.45;;;4.07;;
25279;SDS011;13225;47.804;12.116;2023-08-12T00:35:44;4.07;;;3.67;;
25279;SDS011;13225;47.804;12.116;2023-08-12T00:38:09;5.60;;;3.90;;
25279;SDS011;13225;47.804;12.116;2023-08-12T00:40:35;4.00;;;3.60;;
25279;SDS011;13225;47.804;12.116;2023-08-12T00:43:01;5.60;;;4.07;;
25279;SDS011;13225;47.804;12.116;2023-08-12T00:45:26;5.13;;;4.13;;
25279;SDS011;13225;47.804;12.116;2023-08-12T00:47:52;4.70;;;4.18;;
25279;SDS011;13225;47.804;12.116;2023-08-12T00:50:18;5.65;;;4.07;;
25279;SDS011;13225;47.804;12.116;2023-08-12T00:52:45;5.35;;;4.07;;
25279;SDS011;13225;47.804;12.116;2023-08-12T00:55:10;5.57;;;4.20;;
25279;SDS011;13225;47.804;12.116;2023-08-12T00:57:36;11.00;;;4.55;;
25279;SDS011;13225;47.804;12.116;2023-08-12T01:00:02;4.78;;;4.15;;
25279;SDS011;13225;47.804;12.116;2023-08-12T01:02:29;7.30;;;3.97;;
25279;SDS011;13225;47.804;12.116;2023-08-12T01:04:54;7.45;;;4.22;;
25279;SDS011;13225;47.804;12.116;2023-08-12T01:07:20;4.95;;;4.03;;
25279;SDS011;13225;47.804;12.116;2023-08-12T01:09:46;4.55;;;3.97;;
25279;SDS011;13225;47.804;12.116;2023-08-12T01:12:17;4.93;;;4.18;;
25279;SDS011;13225;47.804;12.116;2023-08-12T01:15:05;4.35;;;3.95;;
25279;SDS011;13225;47.804;12.116;2023-08-12T01:17:36;4.32;;;3.92;;
25279;SDS011;13225;47.804;12.116;2023-08-12T01:20:03;6.55;;;4.28;;
25279;SDS011;13225;47.804;12.116;2023-08-12T01:22:37;5.05;;;3.92;;
25279;SDS011;13225;47.804;12.116;2023-08-12T01:25:06;5.80;;;4.38;;
25279;SDS011;13225;47.804;12.116;2023-08-12T01:27:33;7.18;;;4.00;;
25279;SDS011;13225;47.804;12.116;2023-08-12T01:30:01;5.57;;;4.15;;
25279;SDS011;13225;47.804;12.116;2023-08-12T01:32:34;4.63;;;4.13;;
25279;SDS011;13225;47.804;12.116;2023-08-12T01:37:45;4.10;;;3.70;;
25279;SDS011;13225;47.804;12.116;2023-08-12T01:40:15;4.57;;;4.18;;
25279;SDS011;13225;47.804;12.116;2023-08-12T01:42:41;6.43;;;3.63;;
25279;SDS011;13225;47.804;12.116;2023-08-12T01:45:08;9.18;;;4.32;;
25279;SDS011;13225;47.804;12.116;2023-08-12T01:47:33;4.75;;;4.10;;
25279;SDS011;13225;47.804;12.116;2023-08-12T01:49:59;6.38;;;3.80;;
25279;SDS011;13225;47.804;12.116;2023-08-12T01:52:25;5.55;;;3.80;;
25279;SDS011;13225;47.804;12.116;2023-08-12T01:54:50;5.78;;;3.92;;
25279;SDS011;13225;47.804;12.116;2023-08-12T01:57:16;4.13;;;3.75;;
25279;SDS011;13225;47.804;12.116;2023-08-12T01:59:42;5.10;;;3.95;;
25279;SDS011;13225;47.804;12.116;2023-08-12T02:02:10;4.53;;;3.83;;
25279;SDS011;13225;47.804;12.116;2023-08-12T02:04:36;6.65;;;4.00;;
25279;SDS011;13225;47.804;12.116;2023-08-12T02:07:02;7.22;;;4.13;;
25279;SDS011;13225;47.804;12.116;2023-08-12T02:09:28;6.50;;;4.10;;
25279;SDS011;13225;47.804;12.116;2023-08-12T02:11:54;5.40;;;4.43;;
25279;SDS011;13225;47.804;12.116;2023-08-12T02:14:19;5.50;;;4.20;;
25279;SDS011;13225;47.804;12.116;2023-08-12T02:16:45;4.47;;;4.07;;
25279;SDS011;13225;47.804;12.116;2023-08-12T02:19:11;5.07;;;3.78;;
25279;SDS011;13225;47.804;12.116;2023-08-12T02:21:36;6.75;;;4.63;;
25279;SDS011;13225;47.804;12.116;2023-08-12T02:24:02;6.07;;;3.92;;
25279;SDS011;13225;47.804;12.116;2023-08-12T02:26:27;4.50;;;3.90;;
25279;SDS011;13225;47.804;12.116;2023-08-12T02:28:53;5.25;;;4.10;;
25279;SDS011;13225;47.804;12.116;2023-08-12T02:31:18;7.88;;;4.20;;
25279;SDS011;13225;47.804;12.116;2023-08-12T02:33:44;5.72;;;3.85;;
25279;SDS011;13225;47.804;12.116;2023-08-12T02:36:10;5.30;;;4.20;;
25279;SDS011;13225;47.804;12.116;2023-08-12T02:38:35;5.57;;;4.40;;
25279;SDS011;13225;47.804;12.116;2023-08-12T02:41:01;5.00;;;3.85;;
25279;SDS011;13225;47.804;12.116;2023-08-12T02:43:26;6.03;;;4.63;;
25279;SDS011;13225;47.804;12.116;2023-08-12T02:45:52;8.45;;;4.60;;
25279;SDS011;13225;47.804;12.116;2023-08-12T02:48:18;6.38;;;4.55;;
25279;SDS011;13225;47.804;12.116;2023-08-12T02:50:43;5.32;;;4.45;;
25279;SDS011;13225;47.804;12.116;2023-08-12T02:53:09;5.38;;;4.60;;
25279;SDS011;13225;47.804;12.116;2023-08-12T02:55:35;5.07;;;4.57;;
25279;SDS011;13225;47.804;12.116;2023-08-12T02:58:02;5.15;;;4.50;;
25279;SDS011;13225;47.804;12.116;2023-08-12T03:00:28;5.97;;;4.15;;
25279;SDS011;13225;47.804;12.116;2023-08-12T03:02:54;6.38;;;4.70;;
25279;SDS011;13225;47.804;12.116;2023-08-12T03:05:20;5.85;;;4.30;;
25279;SDS011;13225;47.804;12.116;2023-08-12T03:07:46;5.80;;;4.30;;
25279;SDS011;13225;47.804;12.116;2023-08-12T03:10:12;5.82;;;4.50;;
25279;SDS011;13225;47.804;12.116;2023-08-12T03:12:37;5.53;;;4.50;;
25279;SDS011;13225;47.804;12.116;2023-08-12T03:15:03;7.22;;;4.50;;
25279;SDS011;13225;47.804;12.116;2023-08-12T03:17:31;5.35;;;4.43;;
25279;SDS011;13225;47.804;12.116;2023-08-12T03:19:57;6.15;;;4.78;;
25279;SDS011;13225;47.804;12.116;2023-08-12T03:22:24;6.03;;;4.85;;
25279;SDS011;13225;47.804;12.116;2023-08-12T03:24:50;7.15;;;4.25;;
25279;SDS011;13225;47.804;12.116;2023-08-12T03:27:16;7.82;;;4.53;;
25279;SDS011;13225;47.804;12.116;2023-08-12T03:29:41;7.97;;;4.57;;
25279;SDS011;13225;47.804;12.116;2023-08-12T03:32:07;5.20;;;4.30;;
25279;SDS011;13225;47.804;12.116;2023-08-12T03:34:32;7.07;;;4.30;;
25279;SDS011;13225;47.804;12.116;2023-08-12T03:36:58;8.57;;;5.20;;
25279;SDS011;13225;47.804;12.116;2023-08-12T03:39:24;8.18;;;5.32;;
25279;SDS011;13225;47.804;12.116;2023-08-12T03:41:49;7.38;;;5.70;;
25279;SDS011;13225;47.804;12.116;2023-08-12T03:44:15;6.20;;;4.13;;
25279;SDS011;13225;47.804;12.116;2023-08-12T03:46:41;7.72;;;5.22;;
25279;SDS011;13225;47.804;12.116;2023-08-12T03:49:07;8.30;;;5.18;;
25279;SDS011;13225;47.804;12.116;2023-08-12T03:51:32;7.63;;;5.20;;
25279;SDS011;13225;47.804;12.116;2023-08-12T03:53:58;6.25;;;4.63;;
25279;SDS011;13225;47.804;12.116;2023-08-12T03:56:24;7.30;;;4.55;;
25279;SDS011;13225;47.804;12.116;2023-08-12T03:58:50;6.15;;;4.60;;
25279;SDS011;13225;47.804;12.116;2023-08-12T04:01:16;6.57;;;4.65;;
25279;SDS011;13225;47.804;12.116;2023-08-12T04:03:42;7.35;;;4.75;;
25279;SDS011;13225;47.804;12.116;2023-08-12T04:06:07;6.95;;;5.15;;
25279;SDS011;13225;47.804;12.116;2023-08-12T04:08:33;5.72;;;4.55;;
25279;SDS011;13225;47.804;12.116;2023-08-12T04:10:59;5.43;;;4.72;;
25279;SDS011;13225;47.804;12.116;2023-08-12T04:13:25;5.70;;;3.83;;
25279;SDS011;13225;47.804;12.116;2023-08-12T04:15:51;4.20;;;3.42;;
25279;SDS011;13225;47.804;12.116;2023-08-12T04:18:18;5.07;;;4.00;;
25279;SDS011;13225;47.804;12.116;2023-08-12T04:20:50;4.70;;;4.03;;
25279;SDS011;13225;47.804;12.116;2023-08-12T04:23:17;5.43;;;4.03;;
25279;SDS011;13225;47.804;12.116;2023-08-12T04:25:43;6.22;;;4.20;;
25279;SDS011;13225;47.804;12.116;2023-08-12T04:28:10;8.98;;;4.75;;
25279;SDS011;13225;47.804;12.116;2023-08-12T04:30:40;6.38;;;4.47;;
25279;SDS011;13225;47.804;12.116;2023-08-12T04:33:10;5.22;;;3.95;;
25279;SDS011;13225;47.804;12.116;2023-08-12T04:35:35;4.22;;;3.72;;
25279;SDS011;13225;47.804;12.116;2023-08-12T04:38:01;4.80;;;3.55;;
25279;SDS011;13225;47.804;12.116;2023-08-12T04:40:27;5.85;;;3.83;;
25279;SDS011;13225;47.804;12.116;2023-08-12T04:42:52;8.75;;;3.70;;
25279;SDS011;13225;47.804;12.116;2023-08-12T04:45:18;3.70;;;3.35;;
25279;SDS011;13225;47.804;12.116;2023-08-12T04:47:44;6.20;;;3.72;;
25279;SDS011;13225;47.804;12.116;2023-08-12T04:50:09;3.70;;;3.40;;
25279;SDS011;13225;47.804;12.116;2023-08-12T04:52:35;6.35;;;3.60;;
25279;SDS011;13225;47.804;12.116;2023-08-12T04:55:01;3.97;;;3.55;;
25279;SDS011;13225;47.804;12.116;2023-08-12T04:57:27;7.20;;;3.95;;
25279;SDS011;13225;47.804;12.116;2023-08-12T04:59:53;8.77;;;4.47;;
25279;SDS011;13225;47.804;12.116;2023-08-12T05:02:20;3.72;;;3.22;;
25279;SDS011;13225;47.804;12.116;2023-08-12T05:04:49;6.88;;;4.20;;
25279;SDS011;13225;47.804;12.116;2023-08-12T05:07:15;13.88;;;7.57;;
25279;SDS011;13225;47.804;12.116;2023-08-12T05:09:41;4.93;;;3.90;;
25279;SDS011;13225;47.804;12.116;2023-08-12T05:12:10;4.05;;;3.38;;
25279;SDS011;13225;47.804;12.116;2023-08-12T05:14:36;5.95;;;3.88;;
25279;SDS011;13225;47.804;12.116;2023-08-12T05:17:03;9.95;;;6.60;;
25279;SDS011;13225;47.804;12.116;2023-08-12T05:19:28;12.75;;;7.53;;
25279;SDS011;13225;47.804;12.116;2023-08-12T05:21:54;6.18;;;5.05;;
25279;SDS011;13225;47.804;12.116;2023-08-12T05:24:20;12.93;;;5.97;;
25279;SDS011;13225;47.804;12.116;2023-08-12T05:26:45;3.63;;;3.30;;
25279;SDS011;13225;47.804;12.116;2023-08-12T05:29:11;5.20;;;3.33;;
25279;SDS011;13225;47.804;12.116;2023-08-12T05:31:37;3.65;;;3.35;;
25279;SDS011;13225;47.804;12.116;2023-08-12T05:34:03;3.75;;;3.45;;
25279;SDS011;13225;47.804;12.116;2023-08-12T05:36:29;4.63;;;3.55;;
25279;SDS011;13225;47.804;12.116;2023-08-12T05:38:54;4.40;;;3.97;;
25279;SDS011;13225;47.804;12.116;2023-08-12T05:41:20;3.75;;;3.45;;
25279;SDS011;13225;47.804;12.116;2023-08-12T05:43:47;4.38;;;3.58;;
25279;SDS011;13225;47.804;12.116;2023-08-12T05:46:15;5.80;;;3.60;;
25279;SDS011;13225;47.804;12.116;2023-08-12T05:48:41;5.28;;;3.50;;
25279;SDS011;13225;47.804;12.116;2023-08-12T05:51:06;6.53;;;5.40;;
25279;SDS011;13225;47.804;12.116;2023-08-12T05:53:32;8.75;;;5.65;;
25279;SDS011;13225;47.804;12.116;2023-08-12T05:56:00;6.78;;;3.65;;
25279;SDS011;13225;47.804;12.116;2023-08-12T05:58:26;3.22;;;2.92;;
25279;SDS011;13225;47.804;12.116;2023-08-12T06:00:52;3.85;;;3.45;;
25279;SDS011;13225;47.804;12.116;2023-08-12T06:03:17;4.32;;;3.67;;
25279;SDS011;13225;47.804;12.116;2023-08-12T06:05:44;6.00;;;3.63;;
25279;SDS011;13225;47.804;12.116;2023-08-12T06:08:10;6.28;;;4.32;;
25279;SDS011;13225;47.804;12.116;2023-08-12T06:10:36;5.00;;;4.00;;
25279;SDS011;13225;47.804;12.116;2023-08-12T06:13:01;5.50;;;4.22;;
25279;SDS011;13225;47.804;12.116;2023-08-12T06:15:27;11.43;;;6.90;;
25279;SDS011;13225;47.804;12.116;2023-08-12T06:17:53;23.50;;;14.68;;
25279;SDS011;13225;47.804;12.116;2023-08-12T06:20:18;11.18;;;9.35;;
25279;SDS011;13225;47.804;12.116;2023-08-12T06:22:44;5.88;;;5.38;;
25279;SDS011;13225;47.804;12.116;2023-08-12T06:25:10;5.15;;;4.40;;
25279;SDS011;13225;47.804;12.116;2023-08-12T06:27:35;6.55;;;5.88;;
25279;SDS011;13225;47.804;12.116;2023-08-12T06:30:01;5.13;;;4.63;;
25279;SDS011;13225;47.804;12.116;2023-08-12T06:32:27;4.60;;;4.13;;
25279;SDS011;13225;47.804;12.116;2023-08-12T06:34:53;7.20;;;5.00;;
25279;SDS011;13225;47.804;12.116;2023-08-12T06:37:18;5.47;;;4.18;;
25279;SDS011;13225;47.804;12.116;2023-08-12T06:39:44;4.18;;;3.75;;
25279;SDS011;13225;47.804;12.116;2023-08-12T06:42:09;5.47;;;4.97;;
25279;SDS011;13225;47.804;12.116;2023-08-12T06:44:35;5.10;;;3.80;;
25279;SDS011;13225;47.804;12.116;2023-08-12T06:47:00;7.22;;;6.53;;
25279;SDS011;13225;47.804;12.116;2023-08-12T06:49:26;4.68;;;3.50;;
25279;SDS011;13225;47.804;12.116;2023-08-12T06:51:51;4.50;;;4.10;;
25279;SDS011;13225;47.804;12.116;2023-08-12T06:54:17;6.57;;;4.57;;
25279;SDS011;13225;47.804;12.116;2023-08-12T06:56:43;6.25;;;4.15;;
25279;SDS011;13225;47.804;12.116;2023-08-12T06:59:08;4.22;;;3.40;;
25279;SDS011;13225;47.804;12.116;2023-08-12T07:01:34;3.70;;;3.17;;
25279;SDS011;13225;47.804;12.116;2023-08-12T07:03:59;3.80;;;3.40;;
25279;SDS011;13225;47.804;12.116;2023-08-12T07:06:25;4.00;;;3.35;;
25279;SDS011;13225;47.804;12.116;2023-08-12T07:08:51;5.80;;;3.70;;
25279;SDS011;13225;47.804;12.116;2023-08-12T07:11:16;5.57;;;3.90;;
25279;SDS011;13225;47.804;12.116;2023-08-12T07:13:42;3.60;;;3.30;;
25279;SDS011;13225;47.804;12.116;2023-08-12T07:16:11;4.93;;;3.95;;
25279;SDS011;13225;47.804;12.116;2023-08-12T07:18:36;4.10;;;3.70;;
25279;SDS011;13225;47.804;12.116;2023-08-12T07:21:02;7.25;;;5.47;;
25279;SDS011;13225;47.804;12.116;2023-08-12T07:23:28;4.38;;;3.15;;
25279;SDS011;13225;47.804;12.116;2023-08-12T07:25:53;3.85;;;3.30;;
25279;SDS011;13225;47.804;12.116;2023-08-12T07:28:19;3.75;;;3.35;;
25279;SDS011;13225;47.804;12.116;2023-08-12T07:30:45;3.72;;;3.28;;
25279;SDS011;13225;47.804;12.116;2023-08-12T07:33:11;3.95;;;3.28;;
25279;SDS011;13225;47.804;12.116;2023-08-12T07:35:36;5.93;;;3.60;;
25279;SDS011;13225;47.804;12.116;2023-08-12T07:38:02;4.20;;;3.28;;
25279;SDS011;13225;47.804;12.116;2023-08-12T07:40:27;4.40;;;3.30;;
25279;SDS011;13225;47.804;12.116;2023-08-12T07:42:53;4.55;;;3.10;;
25279;SDS011;13225;47.804;12.116;2023-08-12T07:45:18;3.40;;;3.08;;
25279;SDS011;13225;47.804;12.116;2023-08-12T07:47:44;3.85;;;3.15;;
25279;SDS011;13225;47.804;12.116;2023-08-12T07:50:09;4.15;;;3.72;;
25279;SDS011;13225;47.804;12.116;2023-08-12T07:52:35;3.75;;;3.10;;
25279;SDS011;13225;47.804;12.116;2023-08-12T07:55:01;4.82;;;2.95;;
25279;SDS011;13225;47.804;12.116;2023-08-12T07:57:27;3.60;;;3.30;;
25279;SDS011;13225;47.804;12.116;2023-08-12T07:59:53;3.33;;;3.03;;
25279;SDS011;13225;47.804;12.116;2023-08-12T08:02:18;5.05;;;3.33;;
25279;SDS011;13225;47.804;12.116;2023-08-12T08:04:44;3.50;;;3.20;;
25279;SDS011;13225;47.804;12.116;2023-08-12T08:07:13;5.25;;;3.58;;
25279;SDS011;13225;47.804;12.116;2023-08-12T08:09:39;4.47;;;3.33;;
25279;SDS011;13225;47.804;12.116;2023-08-12T08:12:05;4.72;;;3.42;;
25279;SDS011;13225;47.804;12.116;2023-08-12T08:14:32;3.42;;;2.80;;
25279;SDS011;13225;47.804;12.116;2023-08-12T08:16:57;6.50;;;3.03;;
25279;SDS011;13225;47.804;12.116;2023-08-12T08:19:23;4.05;;;3.22;;
25279;SDS011;13225;47.804;12.116;2023-08-12T08:21:49;3.83;;;2.90;;
25279;SDS011;13225;47.804;12.116;2023-08-12T08:24:14;4.25;;;3.17;;
25279;SDS011;13225;47.804;12.116;2023-08-12T08:26:40;3.80;;;3.40;;
25279;SDS011;13225;47.804;12.116;2023-08-12T08:29:05;3.38;;;3.08;;
25279;SDS011;13225;47.804;12.116;2023-08-12T08:31:31;3.88;;;3.30;;
25279;SDS011;13225;47.804;12.116;2023-08-12T08:33:57;5.65;;;3.85;;
25279;SDS011;13225;47.804;12.116;2023-08-12T08:36:23;3.38;;;3.05;;
25279;SDS011;13225;47.804;12.116;2023-08-12T08:38:49;3.45;;;3.15;;
25279;SDS011;13225;47.804;12.116;2023-08-12T08:41:16;4.10;;;3.00;;
25279;SDS011;13225;47.804;12.116;2023-08-12T08:43:42;3.25;;;2.88;;
25279;SDS011;13225;47.804;12.116;2023-08-12T08:46:12;3.55;;;3.20;;
25279;SDS011;13225;47.804;12.116;2023-08-12T08:48:40;3.72;;;3.28;;
25279;SDS011;13225;47.804;12.116;2023-08-12T08:51:08;4.30;;;3.20;;
25279;SDS011;13225;47.804;12.116;2023-08-12T08:53:38;3.17;;;2.88;;
25279;SDS011;13225;47.804;12.116;2023-08-12T08:56:05;4.00;;;2.90;;
25279;SDS011;13225;47.804;12.116;2023-08-12T08:58:39;3.50;;;3.20;;
25279;SDS011;13225;47.804;12.116;2023-08-12T09:01:05;6.93;;;3.70;;
25279;SDS011;13225;47.804;12.116;2023-08-12T09:03:32;3.28;;;2.97;;
25279;SDS011;13225;47.804;12.116;2023-08-12T09:06:02;3.17;;;2.97;;
25279;SDS011;13225;47.804;12.116;2023-08-12T09:08:29;4.28;;;2.95;;
25279;SDS011;13225;47.804;12.116;2023-08-12T09:10:57;3.30;;;3.00;;
25279;SDS011;13225;47.804;12.116;2023-08-12T09:13:24;3.40;;;3.10;;
25279;SDS011;13225;47.804;12.116;2023-08-12T09:15:50;3.63;;;3.33;;
25279;SDS011;13225;47.804;12.116;2023-08-12T09:18:16;3.40;;;3.10;;
25279;SDS011;13225;47.804;12.116;2023-08-12T09:20:42;4.00;;;3.70;;
25279;SDS011;13225;47.804;12.116;2023-08-12T09:23:08;3.97;;;3.55;;
25279;SDS011;13225;47.804;12.116;2023-08-12T09:25:35;4.13;;;3.75;;
25279;SDS011;13225;47.804;12.116;2023-08-12T09:28:08;4.68;;;3.88;;
25279;SDS011;13225;47.804;12.116;2023-08-12T09:30:34;4.72;;;3.47;;
25279;SDS011;13225;47.804;12.116;2023-08-12T09:33:01;5.03;;;3.58;;
25279;SDS011;13225;47.804;12.116;2023-08-12T09:35:35;5.85;;;4.07;;
25279;SDS011;13225;47.804;12.116;2023-08-12T09:38:05;4.07;;;3.47;;
25279;SDS011;13225;47.804;12.116;2023-08-12T09:40:33;3.58;;;3.28;;
25279;SDS011;13225;47.804;12.116;2023-08-12T09:43:00;3.70;;;3.40;;
25279;SDS011;13225;47.804;12.116;2023-08-12T09:45:26;3.92;;;3.30;;
25279;SDS011;13225;47.804;12.116;2023-08-12T09:47:52;4.63;;;3.15;;
25279;SDS011;13225;47.804;12.116;2023-08-12T09:50:20;3.60;;;3.28;;
25279;SDS011;13225;47.804;12.116;2023-08-12T09:52:51;6.65;;;3.78;;
25279;SDS011;13225;47.804;12.116;2023-08-12T09:55:18;3.40;;;3.10;;
25279;SDS011;13225;47.804;12.116;2023-08-12T09:57:45;3.42;;;3.10;;
25279;SDS011;13225;47.804;12.116;2023-08-12T10:00:13;4.45;;;3.40;;
25279;SDS011;13225;47.804;12.116;2023-08-12T10:02:43;4.85;;;3.63;;
25279;SDS011;13225;47.804;12.116;2023-08-12T10:05:09;4.70;;;3.58;;
25279;SDS011;13225;47.804;12.116;2023-08-12T10:07:37;3.60;;;3.10;;
25279;SDS011;13225;47.804;12.116;2023-08-12T10:10:04;3.58;;;3.28;;
25279;SDS011;13225;47.804;12.116;2023-08-12T10:12:32;4.93;;;3.28;;
25279;SDS011;13225;47.804;12.116;2023-08-12T10:14:58;3.72;;;3.35;;
25279;SDS011;13225;47.804;12.116;2023-08-12T10:17:25;5.00;;;3.20;;
25279;SDS011;13225;47.804;12.116;2023-08-12T10:19:57;3.80;;;3.17;;
25279;SDS011;13225;47.804;12.116;2023-08-12T10:22:24;3.72;;;3.28;;
25279;SDS011;13225;47.804;12.116;2023-08-12T10:24:51;4.28;;;3.17;;
25279;SDS011;13225;47.804;12.116;2023-08-12T10:27:17;3.15;;;2.85;;
25279;SDS011;13225;47.804;12.116;2023-08-12T10:29:43;5.35;;;3.30;;
25279;SDS011;13225;47.804;12.116;2023-08-12T10:32:11;3.78;;;3.47;;
25279;SDS011;13225;47.804;12.116;2023-08-12T10:34:38;3.30;;;3.00;;
25279;SDS011;13225;47.804;12.116;2023-08-12T10:37:03;3.60;;;3.30;;
25279;SDS011;13225;47.804;12.116;2023-08-12T10:39:32;3.33;;;3.05;;
25279;SDS011;13225;47.804;12.116;2023-08-12T10:41:58;3.20;;;3.00;;
25279;SDS011;13225;47.804;12.116;2023-08-12T10:44:37;3.10;;;2.90;;
25279;SDS011;13225;47.804;12.116;2023-08-12T10:47:07;4.40;;;4.05;;
25279;SDS011;13225;47.804;12.116;2023-08-12T10:49:37;3.85;;;3.00;;
25279;SDS011;13225;47.804;12.116;2023-08-12T10:52:28;3.70;;;3.00;;
25279;SDS011;13225;47.804;12.116;2023-08-12T10:54:55;4.20;;;2.97;;
25279;SDS011;13225;47.804;12.116;2023-08-12T10:57:40;3.88;;;2.90;;
25279;SDS011;13225;47.804;12.116;2023-08-12T11:00:09;3.35;;;2.75;;
25279;SDS011;13225;47.804;12.116;2023-08-12T11:02:38;3.20;;;2.92;;
25279;SDS011;13225;47.804;12.116;2023-08-12T11:05:09;3.30;;;3.00;;
25279;SDS011;13225;47.804;12.116;2023-08-12T11:13:03;3.00;;;2.50;;
25279;SDS011;13225;47.804;12.116;2023-08-12T11:15:32;3.10;;;2.80;;
25279;SDS011;13225;47.804;12.116;2023-08-12T11:18:14;3.30;;;2.90;;
25279;SDS011;13225;47.804;12.116;2023-08-12T11:20:41;3.13;;;2.92;;
25279;SDS011;13225;47.804;12.116;2023-08-12T11:23:08;3.00;;;2.80;;
25279;SDS011;13225;47.804;12.116;2023-08-12T11:25:35;2.80;;;2.47;;
25279;SDS011;13225;47.804;12.116;2023-08-12T11:28:03;3.50;;;3.15;;
25279;SDS011;13225;47.804;12.116;2023-08-12T11:30:30;4.28;;;2.90;;
25279;SDS011;13225;47.804;12.116;2023-08-12T11:32:56;3.38;;;3.03;;
25279;SDS011;13225;47.804;12.116;2023-08-12T11:35:23;3.10;;;2.90;;
25279;SDS011;13225;47.804;12.116;2023-08-12T11:37:50;3.58;;;3.28;;
25279;SDS011;13225;47.804;12.116;2023-08-12T11:40:18;3.40;;;3.10;;
25279;SDS011;13225;47.804;12.116;2023-08-12T11:42:48;4.97;;;4.55;;
25279;SDS011;13225;47.804;12.116;2023-08-12T11:45:18;7.47;;;3.03;;
25279;SDS011;13225;47.804;12.116;2023-08-12T11:47:45;5.32;;;3.67;;
25279;SDS011;13225;47.804;12.116;2023-08-12T11:50:18;3.95;;;3.10;;
25279;SDS011;13225;47.804;12.116;2023-08-12T11:52:45;3.13;;;2.90;;
25279;SDS011;13225;47.804;12.116;2023-08-12T11:55:11;4.25;;;2.90;;
25279;SDS011;13225;47.804;12.116;2023-08-12T11:57:40;3.00;;;2.80;;
25279;SDS011;13225;47.804;12.116;2023-08-12T12:00:08;2.90;;;2.70;;
25279;SDS011;13225;47.804;12.116;2023-08-12T12:02:45;3.10;;;2.83;;
25279;SDS011;13225;47.804;12.116;2023-08-12T12:05:14;3.58;;;3.15;;
25279;SDS011;13225;47.804;12.116;2023-08-12T12:07:41;3.35;;;3.05;;
25279;SDS011;13225;47.804;12.116;2023-08-12T12:10:11;3.97;;;2.80;;
25279;SDS011;13225;47.804;12.116;2023-08-12T12:12:38;3.42;;;3.13;;
25279;SDS011;13225;47.804;12.116;2023-08-12T12:15:04;5.22;;;3.40;;
25279;SDS011;13225;47.804;12.116;2023-08-12T12:17:30;3.10;;;2.90;;
25279;SDS011;13225;47.804;12.116;2023-08-12T12:19:56;3.20;;;2.90;;
25279;SDS011;13225;47.804;12.116;2023-08-12T12:22:27;4.10;;;3.17;;
25279;SDS011;13225;47.804;12.116;2023-08-12T12:24:57;3.33;;;3.10;;
25279;SDS011;13225;47.804;12.116;2023-08-12T12:27:24;3.00;;;2.80;;
25279;SDS011;13225;47.804;12.116;2023-08-12T12:29:50;4.55;;;3.45;;
25279;SDS011;13225;47.804;12.116;2023-08-12T12:32:17;3.50;;;3.20;;
25279;SDS011;13225;47.804;12.116;2023-08-12T12:34:44;3.65;;;3.30;;
25279;SDS011;13225;47.804;12.116;2023-08-12T12:37:11;4.85;;;2.90;;
25279;SDS011;13225;47.804;12.116;2023-08-12T12:39:37;3.13;;;2.85;;
25279;SDS011;13225;47.804;12.116;2023-08-12T12:42:03;3.17;;;2.88;;
25279;SDS011;13225;47.804;12.116;2023-08-12T12:44:29;2.83;;;2.60;;
25279;SDS011;13225;47.804;12.116;2023-08-12T12:46:55;2.85;;;2.65;;
25279;SDS011;13225;47.804;12.116;2023-08-12T12:49:20;3.33;;;2.90;;
25279;SDS011;13225;47.804;12.116;2023-08-12T12:51:46;4.38;;;2.85;;
25279;SDS011;13225;47.804;12.116;2023-08-12T12:54:12;3.70;;;2.90;;
25279;SDS011;13225;47.804;12.116;2023-08-12T12:56:37;2.97;;;2.65;;
25279;SDS011;13225;47.804;12.116;2023-08-12T12:59:03;3.88;;;2.75;;
25279;SDS011;13225;47.804;12.116;2023-08-12T13:01:29;2.60;;;2.40;;
25279;SDS011;13225;47.804;12.116;2023-08-12T13:03:54;2.85;;;2.65;;
25279;SDS011;13225;47.804;12.116;2023-08-12T13:06:20;3.00;;;2.80;;
25279;SDS011;13225;47.804;12.116;2023-08-12T13:08:45;2.70;;;2.50;;
25279;SDS011;13225;47.804;12.116;2023-08-12T13:11:11;2.70;;;2.50;;
25279;SDS011;13225;47.804;12.116;2023-08-12T13:13:36;3.22;;;2.40;;
25279;SDS011;13225;47.804;12.116;2023-08-12T13:16:02;2.72;;;2.53;;
25279;SDS011;13225;47.804;12.116;2023-08-12T13:18:27;2.75;;;2.55;;
25279;SDS011;13225;47.804;12.116;2023-08-12T13:20:53;3.05;;;2.85;;
25279;SDS011;13225;47.804;12.116;2023-08-12T13:23:19;3.15;;;2.92;;
25279;SDS011;13225;47.804;12.116;2023-08-12T13:25:44;2.80;;;2.60;;
25279;SDS011;13225;47.804;12.116;2023-08-12T13:28:10;3.15;;;2.85;;
25279;SDS011;13225;47.804;12.116;2023-08-12T13:30:35;2.45;;;2.33;;
25279;SDS011;13225;47.804;12.116;2023-08-12T13:33:02;2.65;;;2.45;;
25279;SDS011;13225;47.804;12.116;2023-08-12T13:35:28;2.80;;;2.60;;
25279;SDS011;13225;47.804;12.116;2023-08-12T13:37:54;2.90;;;2.60;;
25279;SDS011;13225;47.804;12.116;2023-08-12T13:40:19;2.75;;;2.50;;
25279;SDS011;13225;47.804;12.116;2023-08-12T13:42:45;2.85;;;2.60;;
25279;SDS011;13225;47.804;12.116;2023-08-12T13:45:15;2.75;;;2.55;;
25279;SDS011;13225;47.804;12.116;2023-08-12T13:47:40;2.80;;;2.60;;
25279;SDS011;13225;47.804;12.116;2023-08-12T13:50:06;3.17;;;2.90;;
25279;SDS011;13225;47.804;12.116;2023-08-12T13:52:32;2.70;;;2.50;;
25279;SDS011;13225;47.804;12.116;2023-08-12T13:54:58;2.90;;;2.53;;
25279;SDS011;13225;47.804;12.116;2023-08-12T13:57:23;2.55;;;2.35;;
25279;SDS011;13225;47.804;12.116;2023-08-12T13:59:49;2.58;;;2.38;;
25279;SDS011;13225;47.804;12.116;2023-08-12T14:02:15;3.22;;;2.17;;
25279;SDS011;13225;47.804;12.116;2023-08-12T14:04:40;3.20;;;2.10;;
25279;SDS011;13225;47.804;12.116;2023-08-12T14:07:06;2.95;;;2.47;;
25279;SDS011;13225;47.804;12.116;2023-08-12T14:09:33;3.63;;;2.60;;
25279;SDS011;13225;47.804;12.116;2023-08-12T14:11:59;3.10;;;2.53;;
25279;SDS011;13225;47.804;12.116;2023-08-12T14:14:24;3.63;;;2.53;;
25279;SDS011;13225;47.804;12.116;2023-08-12T14:16:54;2.65;;;2.45;;
25279;SDS011;13225;47.804;12.116;2023-08-12T14:19:19;3.97;;;2.63;;
25279;SDS011;13225;47.804;12.116;2023-08-12T14:21:45;3.70;;;2.25;;
25279;SDS011;13225;47.804;12.116;2023-08-12T14:24:11;5.20;;;2.70;;
25279;SDS011;13225;47.804;12.116;2023-08-12T14:26:38;2.42;;;2.22;;
25279;SDS011;13225;47.804;12.116;2023-08-12T14:29:04;4.75;;;2.60;;
25279;SDS011;13225;47.804;12.116;2023-08-12T14:31:29;2.50;;;2.30;;
25279;SDS011;13225;47.804;12.116;2023-08-12T14:33:55;5.30;;;3.42;;
25279;SDS011;13225;47.804;12.116;2023-08-12T14:36:20;2.75;;;2.55;;
25279;SDS011;13225;47.804;12.116;2023-08-12T14:38:46;4.53;;;3.00;;